Time;durP1;ratioP1;P1;durP2;ratioP2;P2;SDS_P1;SDS_P2;PMS_P1;PMS_P2;Temp;Humidity;BMP_temperature;BMP_pressure;BME280_temperature;BME280_humidity;BME280_pressure;Samples;Min_cycle;Max_cycle;Signal;HPM_P1;HPM_P2
2023/06/13 00:01:48;;;;;;;7.80;4.90;;;17.90;74.10;;;;;;6300676;22;20513;-74
2023/06/13 00:04:21;;;;;;;9.13;5.25;;;17.90;74.10;;;;;;6249048;22;20023;-74
2023/06/13 00:06:54;;;;;;;9.68;5.10;;;17.80;74.50;;;;;;6223296;22;20515;-74
2023/06/13 00:09:20;;;;;;;9.77;4.80;;;17.80;74.40;;;;;;6223160;22;20004;-74
2023/06/13 00:11:49;;;;;;;8.50;4.55;;;17.80;74.90;;;;;;6223718;22;20468;-74
2023/06/13 00:14:16;;;;;;;8.73;4.88;;;17.70;75.00;;;;;;6249101;22;20008;-74
2023/06/13 00:16:43;;;;;;;7.63;4.40;;;17.70;75.30;;;;;;6248689;22;20012;-74
2023/06/13 00:19:10;;;;;;;8.20;4.20;;;17.70;75.60;;;;;;6248738;22;20007;-74
2023/06/13 00:21:40;;;;;;;7.97;4.15;;;17.80;75.60;;;;;;6248614;22;20011;-75
2023/06/13 00:24:06;;;;;;;12.30;4.55;;;17.80;76.20;;;;;;6250495;22;20026;-74
2023/06/13 00:26:31;;;;;;;10.13;4.18;;;17.80;75.70;;;;;;6225126;22;20007;-74
2023/06/13 00:28:57;;;;;;;9.93;4.47;;;17.90;76.20;;;;;;6276196;22;20511;-75
2023/06/13 00:31:28;;;;;;;10.38;4.28;;;17.90;75.80;;;;;;6302324;22;20030;-75
2023/06/13 00:33:59;;;;;;;9.15;4.13;;;17.90;75.80;;;;;;6250902;22;20015;-75
2023/06/13 00:36:27;;;;;;;10.65;4.63;;;18.00;75.80;;;;;;6225020;22;20047;-75
2023/06/13 00:38:54;;;;;;;9.00;4.53;;;17.90;76.20;;;;;;6250457;22;20023;-75
2023/06/13 00:41:20;;;;;;;8.77;4.28;;;17.90;77.50;;;;;;6302134;22;20007;-74
2023/06/13 00:43:46;;;;;;;7.75;4.07;;;17.80;76.20;;;;;;6223253;22;20114;-75
2023/06/13 00:46:13;;;;;;;10.63;4.35;;;17.80;77.00;;;;;;6249890;22;20012;-75
2023/06/13 00:48:42;;;;;;;9.75;4.35;;;17.80;77.10;;;;;;6249801;22;20091;-75
2023/06/13 00:51:09;;;;;;;8.27;4.03;;;17.70;76.80;;;;;;6250162;22;20019;-75
2023/06/13 00:53:36;;;;;;;7.80;4.57;;;17.70;76.90;;;;;;6225235;22;20465;-74
2023/06/13 00:56:02;;;;;;;8.88;4.13;;;17.70;76.90;;;;;;6275921;22;20443;-75
2023/06/13 00:58:28;;;;;;;8.00;4.10;;;17.70;76.80;;;;;;6296468;22;20012;-75
2023/06/13 01:00:54;;;;;;;9.10;3.80;;;17.60;77.70;;;;;;6238035;23;20346;-75
2023/06/13 01:03:20;;;;;;;10.38;4.50;;;17.70;77.10;;;;;;6300006;22;20054;-75
2023/06/13 01:05:47;;;;;;;10.43;4.25;;;17.70;77.00;;;;;;6250321;22;20050;-75
2023/06/13 01:08:16;;;;;;;8.10;4.30;;;17.70;77.10;;;;;;6224870;22;20480;-75
2023/06/13 01:10:45;;;;;;;9.60;4.55;;;17.60;77.20;;;;;;6250148;22;20086;-75
2023/06/13 01:13:51;;;;;;;9.52;4.75;;;17.60;77.30;;;;;;6225252;22;20338;-75
2023/06/13 01:16:36;;;;;;;10.27;5.10;;;17.50;77.20;;;;;;6203033;22;20050;-75
2023/06/13 01:19:08;;;;;;;9.60;4.88;;;17.50;77.10;;;;;;6250136;22;20015;-75
2023/06/13 01:21:35;;;;;;;9.45;4.57;;;17.60;77.30;;;;;;6247713;22;20008;-75
2023/06/13 01:24:12;;;;;;;14.32;5.00;;;17.50;77.50;;;;;;6224783;22;20436;-75
2023/06/13 01:26:56;;;;;;;7.47;4.40;;;17.40;77.40;;;;;;6224461;22;20094;-74
2023/06/13 01:29:23;;;;;;;9.95;4.82;;;17.40;77.40;;;;;;6224264;22;20035;-74
2023/06/13 01:31:55;;;;;;;9.00;5.10;;;17.40;77.60;;;;;;6223930;22;20450;-74
2023/06/13 01:34:21;;;;;;;9.43;4.63;;;17.30;77.80;;;;;;6224961;22;20011;-75
2023/06/13 01:36:48;;;;;;;11.15;5.13;;;17.30;78.20;;;;;;6249039;22;20065;-75
2023/06/13 01:39:13;;;;;;;10.93;4.82;;;17.10;78.30;;;;;;6275461;22;20050;-74
2023/06/13 01:41:39;;;;;;;10.73;4.63;;;17.10;78.50;;;;;;6248107;22;20011;-75
2023/06/13 01:44:06;;;;;;;9.07;4.90;;;17.00;79.20;;;;;;6225139;22;20014;-75
2023/06/13 01:46:41;;;;;;;8.18;4.90;;;17.00;79.30;;;;;;6224214;22;20012;-75
2023/06/13 01:49:42;;;;;;;8.50;4.90;;;16.90;79.70;;;;;;6224606;22;20082;-75
2023/06/13 01:52:32;;;;;;;8.75;4.90;;;16.80;80.50;;;;;;6223730;22;20090;-75
2023/06/13 01:55:03;;;;;;;12.32;5.20;;;16.70;81.00;;;;;;6224727;22;20020;-75
2023/06/13 01:57:36;;;;;;;8.55;4.75;;;16.70;81.30;;;;;;6223606;22;20016;-75
2023/06/13 02:00:04;;;;;;;10.10;4.82;;;16.60;81.50;;;;;;6249757;22;20027;-74
2023/06/13 02:02:31;;;;;;;9.23;4.95;;;16.50;81.90;;;;;;6223754;22;20012;-75
2023/06/13 02:04:57;;;;;;;12.88;5.28;;;16.50;82.20;;;;;;6223864;22;20098;-75
2023/06/13 02:07:24;;;;;;;9.23;4.78;;;16.40;83.10;;;;;;6274623;22;20050;-75
2023/06/13 02:09:50;;;;;;;9.20;4.95;;;16.40;83.30;;;;;;6274562;22;20453;-75
2023/06/13 02:12:16;;;;;;;9.38;4.85;;;16.30;83.30;;;;;;6275467;22;20015;-75
2023/06/13 02:14:42;;;;;;;9.18;4.93;;;16.30;84.70;;;;;;6274805;22;20019;-75
2023/06/13 02:17:08;;;;;;;8.55;4.68;;;16.30;84.70;;;;;;6274593;22;20468;-75
2023/06/13 02:19:34;;;;;;;10.68;5.25;;;16.20;84.70;;;;;;6223654;22;20066;-75
2023/06/13 02:22:00;;;;;;;10.10;4.55;;;16.20;85.40;;;;;;6224127;22;20082;-75
2023/06/13 02:24:25;;;;;;;11.13;5.15;;;16.10;85.70;;;;;;6249610;22;20015;-75
2023/06/13 02:26:51;;;;;;;10.68;5.28;;;16.10;86.00;;;;;;6249114;22;20012;-75
2023/06/13 02:29:18;;;;;;;9.10;5.00;;;16.10;86.30;;;;;;6274899;22;20094;-75
2023/06/13 02:31:44;;;;;;;12.25;5.03;;;16.00;86.40;;;;;;6300514;22;20012;-75
2023/06/13 02:34:11;;;;;;;9.52;5.75;;;16.00;86.60;;;;;;6224601;22;20082;-75
2023/06/13 02:36:36;;;;;;;8.63;4.90;;;16.00;86.80;;;;;;6273320;22;20548;-75
2023/06/13 02:39:02;;;;;;;10.73;5.45;;;15.90;86.90;;;;;;6249377;22;20018;-75
2023/06/13 02:41:28;;;;;;;12.07;5.80;;;15.90;87.40;;;;;;6274757;22;20022;-75
2023/06/13 02:43:54;;;;;;;8.43;5.47;;;15.90;87.40;;;;;;6224135;22;20012;-75
2023/06/13 02:46:19;;;;;;;10.65;5.72;;;15.90;87.60;;;;;;6273739;22;20087;-75
2023/06/13 02:48:45;;;;;;;12.63;5.35;;;15.80;88.00;;;;;;6274346;22;20095;-75
2023/06/13 02:51:11;;;;;;;10.15;5.65;;;15.80;88.60;;;;;;6299769;22;20388;-75
2023/06/13 02:53:36;;;;;;;11.82;6.15;;;15.70;88.80;;;;;;6223711;22;20004;-75
2023/06/13 02:56:02;;;;;;;9.68;5.70;;;15.70;88.80;;;;;;6223938;22;20008;-75
2023/06/13 02:58:27;;;;;;;9.82;5.57;;;15.70;89.10;;;;;;6248510;22;20315;-75
2023/06/13 03:00:53;;;;;;;10.02;5.68;;;15.60;89.30;;;;;;6274496;22;20011;-75
2023/06/13 03:03:21;;;;;;;12.23;5.72;;;15.60;89.70;;;;;;6275099;22;20462;-75
2023/06/13 03:05:47;;;;;;;11.65;5.82;;;15.60;89.70;;;;;;6247703;22;20454;-75
2023/06/13 03:08:18;;;;;;;10.48;5.80;;;15.60;89.70;;;;;;6223162;22;20018;-75
2023/06/13 03:10:44;;;;;;;11.13;5.63;;;15.60;90.10;;;;;;6249097;22;20062;-75
2023/06/13 03:13:10;;;;;;;10.50;5.68;;;15.60;89.90;;;;;;6249501;22;20361;-75
2023/06/13 03:15:35;;;;;;;13.07;6.05;;;15.50;90.40;;;;;;6273842;22;20030;-75
2023/06/13 03:18:01;;;;;;;13.38;6.22;;;15.60;90.10;;;;;;6249433;22;20461;-75
2023/06/13 03:20:26;;;;;;;9.75;5.65;;;15.50;90.40;;;;;;6273748;22;20420;-75
2023/06/13 03:22:52;;;;;;;9.27;5.45;;;15.50;90.40;;;;;;6273882;22;20395;-75
2023/06/13 03:25:18;;;;;;;11.32;5.82;;;15.50;90.50;;;;;;6274855;22;20086;-75
2023/06/13 03:27:44;;;;;;;10.45;5.70;;;15.50;90.60;;;;;;6223496;22;20007;-75
2023/06/13 03:30:10;;;;;;;11.75;6.18;;;15.50;90.70;;;;;;6223850;22;20099;-75
2023/06/13 03:32:36;;;;;;;13.23;6.20;;;15.40;90.70;;;;;;6223807;22;20385;-75
2023/06/13 03:35:02;;;;;;;10.88;7.10;;;15.50;90.70;;;;;;6249034;22;20014;-75
2023/06/13 03:37:28;;;;;;;14.32;6.70;;;15.40;91.20;;;;;;6223340;22;20012;-75
2023/06/13 03:39:54;;;;;;;11.63;6.90;;;15.40;91.00;;;;;;6223105;22;20138;-75
2023/06/13 03:42:19;;;;;;;14.48;5.82;;;15.40;91.10;;;;;;6249258;22;20462;-75
2023/06/13 03:44:48;;;;;;;9.45;6.03;;;15.40;91.50;;;;;;6249214;22;20022;-75
2023/06/13 03:47:14;;;;;;;11.68;6.15;;;15.40;91.50;;;;;;6223085;22;20046;-74
2023/06/13 03:49:40;;;;;;;12.75;6.10;;;15.30;91.60;;;;;;6248933;22;20008;-75
2023/06/13 03:52:06;;;;;;;9.82;5.20;;;15.30;91.40;;;;;;6247382;22;20086;-75
2023/06/13 03:54:32;;;;;;;9.32;5.30;;;15.40;91.60;;;;;;6248445;22;20011;-75
2023/06/13 03:56:57;;;;;;;11.15;5.65;;;15.40;91.80;;;;;;6224474;22;20449;-75
2023/06/13 03:59:23;;;;;;;8.93;4.93;;;15.40;91.70;;;;;;6225387;22;20065;-75
2023/06/13 04:01:48;;;;;;;10.60;5.93;;;15.50;91.60;;;;;;6225273;22;20011;-75
2023/06/13 04:04:14;;;;;;;9.40;5.35;;;15.50;92.00;;;;;;6250941;22;20453;-75
2023/06/13 04:06:41;;;;;;;12.88;5.15;;;15.50;91.90;;;;;;6225229;22;20015;-75
2023/06/13 04:09:06;;;;;;;11.05;5.85;;;15.50;92.10;;;;;;6249035;22;20023;-75
2023/06/13 04:11:33;;;;;;;11.60;5.80;;;15.50;92.10;;;;;;6223804;22;20057;-74
2023/06/13 04:14:00;;;;;;;9.32;5.60;;;15.50;92.20;;;;;;6225845;22;20373;-74
2023/06/13 04:16:25;;;;;;;10.63;5.50;;;15.40;92.20;;;;;;6222831;22;20015;-75
2023/06/13 04:18:54;;;;;;;11.30;5.65;;;15.50;92.40;;;;;;6251131;22;20024;-75
2023/06/13 04:21:21;;;;;;;12.20;5.97;;;15.50;92.70;;;;;;6250550;22;20120;-76
2023/06/13 04:23:48;;;;;;;11.05;5.85;;;15.50;92.40;;;;;;6225656;22;20044;-75
2023/06/13 04:26:17;;;;;;;11.75;5.68;;;15.50;92.40;;;;;;6224054;22;20007;-75
2023/06/13 04:28:43;;;;;;;10.25;5.38;;;15.50;92.20;;;;;;6224811;22;20018;-75
2023/06/13 04:31:10;;;;;;;10.90;5.65;;;15.60;91.90;;;;;;6225741;22;20082;-75
2023/06/13 04:33:39;;;;;;;10.00;5.75;;;15.60;92.00;;;;;;6250469;22;20517;-75
2023/06/13 04:36:05;;;;;;;11.82;5.63;;;15.70;92.20;;;;;;6224854;22;20023;-77
2023/06/13 04:38:34;;;;;;;9.13;5.70;;;15.70;91.80;;;;;;6248802;22;20099;-75
2023/06/13 04:41:00;;;;;;;10.38;5.45;;;15.70;92.10;;;;;;6224980;22;20441;-75
2023/06/13 04:43:28;;;;;;;10.13;5.15;;;15.70;92.00;;;;;;6224637;22;20184;-75
2023/06/13 04:45:55;;;;;;;8.80;5.10;;;15.80;91.70;;;;;;6249590;22;20016;-76
2023/06/13 04:48:25;;;;;;;11.02;5.35;;;15.90;91.80;;;;;;6225525;22;20004;-75
2023/06/13 04:50:53;;;;;;;10.45;5.20;;;15.90;91.70;;;;;;6250237;22;20012;-75
2023/06/13 04:53:21;;;;;;;9.75;5.28;;;16.00;91.60;;;;;;6250789;22;20015;-75
2023/06/13 04:55:48;;;;;;;9.85;4.53;;;16.10;91.50;;;;;;6224157;22;20051;-75
2023/06/13 04:58:15;;;;;;;9.88;4.75;;;16.20;91.10;;;;;;6224330;22;20016;-75
2023/06/13 05:00:41;;;;;;;9.80;5.00;;;16.20;91.20;;;;;;6225404;22;20011;-75
2023/06/13 05:03:07;;;;;;;10.40;5.20;;;16.30;91.00;;;;;;6250159;22;20409;-76
2023/06/13 05:05:32;;;;;;;8.90;4.70;;;16.30;90.60;;;;;;6249931;22;20024;-76
2023/06/13 05:07:59;;;;;;;12.98;5.10;;;16.40;90.70;;;;;;6249087;22;20503;-76
2023/06/13 05:10:26;;;;;;;10.13;5.10;;;16.40;90.80;;;;;;6249851;22;20365;-76
2023/06/13 05:12:52;;;;;;;11.15;5.10;;;16.50;90.90;;;;;;6250453;22;20030;-75
2023/06/13 05:15:19;;;;;;;8.30;4.90;;;16.50;90.80;;;;;;6225005;22;20015;-75
2023/06/13 05:17:45;;;;;;;8.85;5.05;;;16.60;90.50;;;;;;6223172;22;20012;-75
2023/06/13 05:20:12;;;;;;;9.27;5.20;;;16.50;90.30;;;;;;6223631;22;20085;-75
2023/06/13 05:22:39;;;;;;;11.82;5.72;;;16.80;90.50;;;;;;6249852;22;20022;-76
2023/06/13 05:25:08;;;;;;;9.57;5.63;;;16.70;90.40;;;;;;6224586;22;20091;-75
2023/06/13 05:27:34;;;;;;;9.30;5.00;;;16.70;90.60;;;;;;6224335;22;20019;-76
2023/06/13 05:30:00;;;;;;;10.20;5.22;;;16.80;90.60;;;;;;6249299;22;20007;-75
2023/06/13 05:32:25;;;;;;;10.07;5.35;;;16.90;90.00;;;;;;6225229;22;20034;-77
2023/06/13 05:34:51;;;;;;;9.20;4.93;;;16.90;87.40;;;;;;6223541;22;20039;-76
2023/06/13 05:37:17;;;;;;;9.63;5.13;;;17.00;88.20;;;;;;6225067;22;20007;-75
2023/06/13 05:39:43;;;;;;;9.60;4.90;;;17.10;87.90;;;;;;6223723;22;20007;-76
2023/06/13 05:42:09;;;;;;;9.95;4.90;;;17.20;85.90;;;;;;6249407;22;20069;-75
2023/06/13 05:44:34;;;;;;;7.85;4.60;;;17.20;86.20;;;;;;6249191;22;20008;-76
2023/06/13 05:47:00;;;;;;;7.60;4.50;;;17.30;85.30;;;;;;6249986;22;20086;-76
2023/06/13 05:49:25;;;;;;;8.38;4.50;;;17.30;82.80;;;;;;6250209;22;20507;-76
2023/06/13 05:51:53;;;;;;;8.18;4.75;;;17.50;82.80;;;;;;6223566;22;20003;-76
2023/06/13 05:54:19;;;;;;;8.65;4.60;;;17.50;81.40;;;;;;6224209;22;20043;-76
2023/06/13 05:56:44;;;;;;;10.20;5.85;;;17.60;78.90;;;;;;6223773;22;20061;-75
2023/06/13 05:59:10;;;;;;;9.45;4.30;;;17.70;78.60;;;;;;6248088;22;20024;-76
2023/06/13 06:01:37;;;;;;;8.73;4.22;;;17.70;79.10;;;;;;6224063;22;20034;-76
2023/06/13 06:04:03;;;;;;;8.40;4.28;;;17.90;78.00;;;;;;6250115;22;20019;-76
2023/06/13 06:06:28;;;;;;;8.30;4.43;;;17.90;78.50;;;;;;6248875;22;20380;-75
2023/06/13 06:08:54;;;;;;;7.68;4.10;;;18.00;75.70;;;;;;6249567;22;20069;-75
2023/06/13 06:11:20;;;;;;;8.38;4.47;;;18.10;75.60;;;;;;6274870;22;20098;-75
2023/06/13 06:13:45;;;;;;;9.38;4.63;;;18.20;76.90;;;;;;6223277;22;20346;-75
2023/06/13 06:16:11;;;;;;;8.65;4.28;;;18.40;75.30;;;;;;6275474;22;20011;-75
2023/06/13 06:18:36;;;;;;;7.50;3.92;;;18.50;76.20;;;;;;6274079;22;20019;-75
2023/06/13 06:21:02;;;;;;;9.95;3.95;;;18.60;75.70;;;;;;6221835;22;20034;-75
2023/06/13 06:23:28;;;;;;;8.45;4.07;;;18.70;76.90;;;;;;6290245;22;20341;-75
2023/06/13 06:25:54;;;;;;;7.80;3.70;;;18.80;72.70;;;;;;6248338;22;20012;-75
2023/06/13 06:28:19;;;;;;;10.20;4.30;;;18.90;74.40;;;;;;6272757;22;20008;-75
2023/06/13 06:30:45;;;;;;;8.63;4.00;;;19.00;73.70;;;;;;6273703;22;20450;-75
2023/06/13 06:33:10;;;;;;;8.82;3.72;;;19.10;72.90;;;;;;6273230;22;20007;-75
2023/06/13 06:35:36;;;;;;;6.72;3.60;;;19.20;75.00;;;;;;6274597;22;20058;-75
2023/06/13 06:38:02;;;;;;;7.60;3.50;;;19.30;75.50;;;;;;6298184;22;20019;-74
2023/06/13 06:40:28;;;;;;;9.25;3.90;;;19.50;73.70;;;;;;6272986;22;20058;-74
2023/06/13 06:42:53;;;;;;;7.95;3.55;;;19.50;73.80;;;;;;6300657;22;20016;-74
2023/06/13 06:45:19;;;;;;;7.50;3.53;;;19.60;74.60;;;;;;6298638;22;20039;-82
2023/06/13 06:47:44;;;;;;;6.50;3.28;;;19.80;75.00;;;;;;6275232;22;20396;-86
2023/06/13 06:50:10;;;;;;;10.93;3.60;;;19.80;76.40;;;;;;6301119;22;20472;-86
2023/06/13 06:52:36;;;;;;;9.95;3.63;;;19.90;74.60;;;;;;6249155;22;20011;-93
2023/06/13 06:55:02;;;;;;;8.00;3.80;;;20.00;75.30;;;;;;6273705;22;20007;-85
2023/06/13 06:57:28;;;;;;;8.05;3.60;;;20.10;74.90;;;;;;6274020;22;20149;-75
2023/06/13 06:59:53;;;;;;;8.35;3.67;;;20.20;74.80;;;;;;6299693;22;20012;-75
2023/06/13 07:02:19;;;;;;;8.25;3.53;;;20.30;74.00;;;;;;6249325;22;20008;-74
2023/06/13 07:04:45;;;;;;;7.45;3.47;;;20.40;74.90;;;;;;6223014;22;20008;-80
2023/06/13 07:07:11;;;;;;;7.72;3.22;;;20.40;74.00;;;;;;6272982;22;20012;-80
2023/06/13 07:09:37;;;;;;;7.47;3.40;;;20.40;73.40;;;;;;6274279;22;20023;-79
2023/06/13 07:12:03;;;;;;;8.13;3.70;;;20.50;74.00;;;;;;6273897;22;20011;-81
2023/06/13 07:14:28;;;;;;;9.75;3.53;;;20.60;72.20;;;;;;6221204;22;20011;-80
2023/06/13 07:16:54;;;;;;;7.22;3.25;;;20.70;73.90;;;;;;6297897;22;20018;-81
2023/06/13 07:19:20;;;;;;;7.00;3.97;;;20.80;72.90;;;;;;6247776;22;20090;-79
2023/06/13 07:21:46;;;;;;;7.97;3.35;;;20.90;72.30;;;;;;6222091;22;20077;-79
2023/06/13 07:24:12;;;;;;;12.95;3.72;;;20.90;72.90;;;;;;6299553;22;20449;-80
2023/06/13 07:26:37;;;;;;;9.30;3.67;;;20.90;73.50;;;;;;6274702;22;20083;-79
2023/06/13 07:29:03;;;;;;;6.82;3.20;;;21.00;74.00;;;;;;6274064;22;20008;-78
2023/06/13 07:31:30;;;;;;;7.65;3.30;;;21.20;72.80;;;;;;6275970;22;20011;-79
2023/06/13 07:33:55;;;;;;;7.32;3.03;;;21.20;71.30;;;;;;6278491;22;20012;-82
2023/06/13 07:36:21;;;;;;;8.20;3.35;;;21.30;70.80;;;;;;6252221;22;20046;-80
2023/06/13 07:38:47;;;;;;;7.40;3.20;;;21.30;71.10;;;;;;6250900;22;20019;-75
2023/06/13 07:41:12;;;;;;;6.80;2.92;;;21.40;69.00;;;;;;6277193;22;20011;-75
2023/06/13 07:43:39;;;;;;;7.70;3.50;;;21.50;70.90;;;;;;6302367;22;20066;-74
2023/06/13 07:46:06;;;;;;;7.70;3.42;;;21.50;70.00;;;;;;6225884;22;20008;-73
2023/06/13 07:48:32;;;;;;;6.65;3.10;;;21.60;69.60;;;;;;6226416;22;20019;-73
2023/06/13 07:50:57;;;;;;;7.43;3.00;;;21.60;67.10;;;;;;6250943;22;20004;-73
2023/06/13 07:53:23;;;;;;;6.75;3.35;;;21.80;69.10;;;;;;6224287;22;20194;-74
2023/06/13 07:55:49;;;;;;;8.88;3.42;;;21.90;69.00;;;;;;6277073;22;20015;-74
2023/06/13 07:58:15;;;;;;;8.02;3.33;;;22.00;68.70;;;;;;6276991;22;20086;-74
2023/06/13 08:00:40;;;;;;;10.13;3.30;;;22.10;67.80;;;;;;6276933;22;20015;-73
2023/06/13 08:03:06;;;;;;;8.65;3.20;;;22.10;65.30;;;;;;6276604;22;20345;-75
2023/06/13 08:05:32;;;;;;;8.88;3.25;;;22.20;64.70;;;;;;6251275;22;20008;-76
2023/06/13 08:07:58;;;;;;;7.72;3.25;;;22.30;64.40;;;;;;6277529;22;20016;-74
2023/06/13 08:10:25;;;;;;;9.07;3.30;;;22.30;62.10;;;;;;6250785;22;20392;-76
2023/06/13 08:12:51;;;;;;;6.55;3.30;;;22.40;60.70;;;;;;6226477;22;20007;-76
2023/06/13 08:15:17;;;;;;;7.22;2.75;;;22.40;63.10;;;;;;6250842;22;20018;-76
2023/06/13 08:17:43;;;;;;;7.30;3.13;;;22.50;64.20;;;;;;6276364;22;20039;-76
2023/06/13 08:20:09;;;;;;;5.20;2.75;;;22.70;63.80;;;;;;6276182;22;20034;-76
2023/06/13 08:22:38;;;;;;;7.43;3.30;;;22.80;63.50;;;;;;6250849;22;20012;-76
2023/06/13 08:25:04;;;;;;;6.93;3.10;;;22.80;62.30;;;;;;6225557;22;20030;-76
2023/06/13 08:27:30;;;;;;;6.65;2.90;;;22.90;60.00;;;;;;6225844;22;20511;-76
2023/06/13 08:29:56;;;;;;;5.80;2.80;;;23.10;59.50;;;;;;6276669;22;20054;-75
2023/06/13 08:32:24;;;;;;;8.63;3.30;;;23.20;56.00;;;;;;6252474;22;20083;-77
2023/06/13 08:34:50;;;;;;;8.50;2.97;;;23.20;57.20;;;;;;6224069;22;20091;-76
2023/06/13 08:37:15;;;;;;;8.48;3.20;;;23.30;58.60;;;;;;6251013;22;20046;-76
2023/06/13 08:39:41;;;;;;;9.00;3.22;;;23.30;58.60;;;;;;6225655;22;20012;-76
2023/06/13 08:42:07;;;;;;;6.18;2.95;;;23.30;56.10;;;;;;6274601;22;20442;-77
2023/06/13 08:44:33;;;;;;;5.10;2.90;;;23.40;59.20;;;;;;6249996;22;20007;-77
2023/06/13 08:46:59;;;;;;;8.70;3.20;;;23.40;58.20;;;;;;6276359;22;20008;-76
2023/06/13 08:49:25;;;;;;;10.75;3.20;;;23.60;59.00;;;;;;6249832;22;20061;-87
2023/06/13 08:51:52;;;;;;;6.95;3.00;;;23.60;58.00;;;;;;6300289;22;20012;-84
2023/06/13 08:54:19;;;;;;;7.15;3.13;;;23.60;59.10;;;;;;6223912;22;20007;-83
2023/06/13 08:56:46;;;;;;;6.97;3.25;;;23.80;57.80;;;;;;6250724;22;20018;-83
2023/06/13 08:59:17;;;;;;;6.80;3.05;;;23.80;58.10;;;;;;6248458;22;20012;-87
2023/06/13 09:01:44;;;;;;;7.82;3.22;;;23.90;57.90;;;;;;6223825;22;20318;-75
2023/06/13 09:04:11;;;;;;;8.43;3.40;;;23.90;57.10;;;;;;6223490;22;20012;-75
2023/06/13 09:06:37;;;;;;;6.57;3.10;;;24.00;57.70;;;;;;6250421;22;20342;-75
2023/06/13 09:09:07;;;;;;;7.65;3.35;;;24.10;55.30;;;;;;6250671;22;20007;-75
2023/06/13 09:11:36;;;;;;;6.60;3.40;;;24.00;56.20;;;;;;6250053;22;20489;-75
2023/06/13 09:14:06;;;;;;;9.00;3.33;;;24.00;55.20;;;;;;6224577;22;20472;-77
2023/06/13 09:16:32;;;;;;;9.77;3.40;;;24.20;57.10;;;;;;6275683;22;20057;-76
2023/06/13 09:18:59;;;;;;;8.30;3.25;;;24.30;56.90;;;;;;6223811;22;20373;-75
2023/06/13 09:21:26;;;;;;;9.52;3.65;;;24.30;57.60;;;;;;6249560;22;20016;-76
2023/06/13 09:23:55;;;;;;;10.40;3.80;;;24.30;55.60;;;;;;6275685;22;20015;-76
2023/06/13 09:26:21;;;;;;;9.95;4.07;;;24.30;57.30;;;;;;6250483;22;20012;-76
2023/06/13 09:28:47;;;;;;;6.30;3.25;;;24.20;56.50;;;;;;6301314;22;20442;-76
2023/06/13 09:31:14;;;;;;;6.45;3.53;;;24.30;57.50;;;;;;6275368;22;20019;-76
2023/06/13 09:33:45;;;;;;;6.85;3.22;;;24.30;57.60;;;;;;6224538;22;20008;-76
2023/06/13 09:36:11;;;;;;;7.38;3.47;;;24.40;56.80;;;;;;6225111;22;20529;-76
2023/06/13 09:38:40;;;;;;;8.73;3.40;;;24.40;57.10;;;;;;6222392;22;20058;-74
2023/06/13 09:41:08;;;;;;;5.60;3.40;;;24.40;57.40;;;;;;6249304;22;20015;-74
2023/06/13 09:43:34;;;;;;;7.15;3.45;;;24.60;57.70;;;;;;6248916;22;20012;-74
2023/06/13 09:46:01;;;;;;;6.78;3.40;;;24.80;57.00;;;;;;6250223;22;20061;-74
2023/06/13 09:48:27;;;;;;;9.43;3.47;;;24.80;56.20;;;;;;6243961;23;20018;-74
2023/06/13 09:50:54;;;;;;;7.05;3.38;;;24.80;56.80;;;;;;6237311;23;20012;-74
2023/06/13 09:53:20;;;;;;;6.68;3.30;;;24.80;56.80;;;;;;6248512;22;20012;-74
2023/06/13 09:55:45;;;;;;;8.77;3.65;;;24.80;55.10;;;;;;6223445;22;20094;-75
2023/06/13 09:58:11;;;;;;;7.75;3.20;;;24.90;57.20;;;;;;6249680;22;20381;-74
2023/06/13 10:00:37;;;;;;;6.75;3.40;;;25.00;56.60;;;;;;6249705;22;20082;-75
2023/06/13 10:03:03;;;;;;;5.50;3.08;;;25.00;56.70;;;;;;6275693;22;20011;-75
2023/06/13 10:05:29;;;;;;;6.47;4.03;;;25.20;56.50;;;;;;6273680;22;20019;-75
2023/06/13 10:07:55;;;;;;;7.07;3.28;;;25.20;55.60;;;;;;6301377;22;20022;-74
2023/06/13 10:10:21;;;;;;;8.10;3.40;;;25.30;57.10;;;;;;6249392;22;20012;-74
2023/06/13 10:12:54;;;;;;;7.55;3.60;;;25.40;56.40;;;;;;6272793;22;20011;-75
2023/06/13 10:15:47;;;;;;;8.02;3.30;;;25.50;55.60;;;;;;6222400;22;20061;-74
2023/06/13 10:18:14;;;;;;;9.65;3.40;;;25.60;55.40;;;;;;6284368;22;20023;-74
2023/06/13 10:20:45;;;;;;;9.10;3.22;;;25.70;56.90;;;;;;6221224;22;20008;-74
2023/06/13 10:23:12;;;;;;;9.95;4.03;;;25.70;56.70;;;;;;6223657;22;20011;-74
2023/06/13 10:25:38;;;;;;;8.90;3.63;;;25.70;53.50;;;;;;6224119;22;20061;-74
2023/06/13 10:28:21;;;;;;;8.35;3.55;;;25.60;54.20;;;;;;6275427;22;20015;-82
2023/06/13 10:31:12;;;;;;;7.28;3.53;;;25.80;55.90;;;;;;6224402;22;20016;-74
2023/06/13 10:33:55;;;;;;;8.40;3.65;;;25.80;56.30;;;;;;6300689;22;20011;-73
2023/06/13 10:36:31;;;;;;;10.13;3.45;;;25.70;54.20;;;;;;6247501;22;20095;-74
2023/06/13 10:39:18;;;;;;;6.85;3.35;;;25.70;55.10;;;;;;6224512;22;20019;-74
2023/06/13 10:41:51;;;;;;;7.15;3.40;;;25.70;55.30;;;;;;6301014;22;20022;-74
2023/06/13 10:44:44;;;;;;;6.38;3.40;;;25.70;56.90;;;;;;6224430;22;20077;-74
2023/06/13 10:47:09;;;;;;;7.75;3.63;;;25.80;56.70;;;;;;6178483;22;20011;-74
2023/06/13 10:49:39;;;;;;;6.78;3.10;;;25.90;57.40;;;;;;6249681;22;20023;-74
2023/06/13 10:52:10;;;;;;;8.68;3.45;;;25.90;57.30;;;;;;6223856;22;20012;-74
2023/06/13 10:54:36;;;;;;;7.25;3.40;;;25.70;57.60;;;;;;6274156;22;20159;-74
2023/06/13 10:57:01;;;;;;;7.32;3.72;;;25.70;56.60;;;;;;6249250;22;20327;-74
2023/06/13 10:59:36;;;;;;;6.97;2.97;;;25.70;59.10;;;;;;6224051;22;20039;-74
2023/06/13 11:02:02;;;;;;;7.50;3.03;;;25.80;58.40;;;;;;6223737;22;20011;-74
2023/06/13 11:04:29;;;;;;;7.18;3.47;;;25.90;57.40;;;;;;6300908;22;20008;-74
2023/06/13 11:07:21;;;;;;;7.30;3.03;;;25.80;55.80;;;;;;6223761;22;20095;-74
2023/06/13 11:10:11;;;;;;;6.03;3.10;;;25.80;57.00;;;;;;6248362;22;20042;-74
2023/06/13 11:12:36;;;;;;;7.88;3.20;;;25.80;57.00;;;;;;6223193;22;20023;-74
2023/06/13 11:15:18;;;;;;;9.35;3.13;;;25.90;57.20;;;;;;6274773;22;20345;-74
2023/06/13 11:18:20;;;;;;;6.97;3.30;;;25.80;55.70;;;;;;6222565;22;20004;-74
2023/06/13 11:20:51;;;;;;;7.47;3.20;;;26.00;55.60;;;;;;6251805;22;20021;-75
2023/06/13 11:23:35;;;;;;;6.50;3.38;;;26.00;56.90;;;;;;6274189;22;20012;-74
2023/06/13 11:26:01;;;;;;;9.45;3.30;;;26.00;56.80;;;;;;6223967;22;20015;-74
2023/06/13 11:28:26;;;;;;;6.22;2.92;;;26.10;55.80;;;;;;6249626;22;20046;-73
2023/06/13 11:30:52;;;;;;;6.90;3.05;;;25.90;57.10;;;;;;6300631;22;20333;-74
2023/06/13 11:33:19;;;;;;;6.95;3.22;;;26.10;57.80;;;;;;6224235;22;20339;-74
2023/06/13 11:35:51;;;;;;;7.15;3.33;;;26.00;57.70;;;;;;6222822;22;20074;-74
2023/06/13 11:38:26;;;;;;;6.07;3.17;;;26.10;57.10;;;;;;6249119;22;20034;-74
2023/06/13 11:40:58;;;;;;;6.68;3.22;;;25.90;56.70;;;;;;6249341;22;20016;-74
2023/06/13 11:43:30;;;;;;;;;;;26.10;56.60;;;;;;6249864;22;20082;-74
2023/06/13 11:45:56;;;;;;;;;;;26.00;57.70;;;;;;6224437;22;19919;-74
2023/06/13 11:48:24;;;;;;;6.03;3.35;;;25.90;56.80;;;;;;6300747;22;19910;-74
2023/06/13 11:50:50;;;;;;;7.45;3.30;;;25.80;56.50;;;;;;6249208;22;20015;-74
2023/06/13 11:53:16;;;;;;;6.75;3.00;;;25.90;56.40;;;;;;6300612;22;20012;-74
2023/06/13 11:55:41;;;;;;;6.63;3.22;;;25.80;57.90;;;;;;6273227;22;20011;-74
2023/06/13 11:58:07;;;;;;;8.20;3.60;;;25.90;58.20;;;;;;6274732;22;20019;-74
2023/06/13 12:00:55;;;;;;;7.88;3.20;;;25.80;57.60;;;;;;6249234;22;20022;-74
2023/06/13 12:03:23;;;;;;;7.28;3.15;;;25.70;56.90;;;;;;6249286;22;20014;-74
2023/06/13 12:05:50;;;;;;;8.30;3.65;;;25.60;56.10;;;;;;6223670;22;20016;-73
2023/06/13 12:08:18;;;;;;;6.80;3.25;;;25.70;55.70;;;;;;6224608;22;20095;-73
2023/06/13 12:10:47;;;;;;;5.75;3.65;;;25.70;57.60;;;;;;6273062;22;20018;-74
2023/06/13 12:13:20;;;;;;;6.13;3.08;;;25.70;56.30;;;;;;6249038;22;20090;-74
2023/06/13 12:15:46;;;;;;;7.88;3.28;;;25.60;57.30;;;;;;6223745;22;20492;-74
2023/06/13 12:18:11;;;;;;;5.43;3.10;;;25.70;57.50;;;;;;6275593;22;20016;-74
2023/06/13 12:20:49;;;;;;;7.82;3.15;;;25.70;56.40;;;;;;6276670;22;20023;-73
2023/06/13 12:23:15;;;;;;;5.95;3.15;;;25.60;57.90;;;;;;6251274;22;20153;-73
2023/06/13 12:25:41;;;;;;;6.28;3.20;;;25.70;56.70;;;;;;6302349;22;20385;-73
2023/06/13 12:28:12;;;;;;;5.78;3.08;;;25.60;56.90;;;;;;6249553;22;20030;-73
2023/06/13 12:30:41;;;;;;;6.43;3.05;;;25.40;54.90;;;;;;6302450;22;20346;-73
2023/06/13 12:33:07;;;;;;;8.13;3.25;;;25.50;57.30;;;;;;6225165;22;20050;-73
2023/06/13 12:35:33;;;;;;;7.20;3.17;;;25.60;56.40;;;;;;6225715;22;20015;-74
2023/06/13 12:38:02;;;;;;;5.20;2.90;;;25.40;56.90;;;;;;6276579;22;20030;-73
2023/06/13 12:40:35;;;;;;;5.80;3.13;;;25.40;57.00;;;;;;6250903;22;20011;-74
2023/06/13 12:43:04;;;;;;;8.73;3.60;;;25.40;56.40;;;;;;6274719;22;20341;-73
2023/06/13 12:45:33;;;;;;;9.00;3.45;;;25.50;57.40;;;;;;6299387;22;20026;-73
2023/06/13 12:47:59;;;;;;;5.88;2.90;;;25.60;57.10;;;;;;6249905;22;20004;-73
2023/06/13 12:50:26;;;;;;;5.15;2.90;;;25.60;56.60;;;;;;6276005;22;20341;-74